Time;durP1;ratioP1;P1;durP2;ratioP2;P2;SDS_P1;SDS_P2;PMS_P1;PMS_P2;Temp;Humidity;BMP_temperature;BMP_pressure;BME280_temperature;BME280_humidity;BME280_pressure;Samples;Min_cycle;Max_cycle;Signal;HPM_P1;HPM_P2
2021/05/21 00:02:05;;;;;;;9.73;2.40;;;;;;;9.78;100.00;94408.13;10408521;28;20796;-77
2021/05/21 00:07:05;;;;;;;3.03;2.47;;;;;;;9.95;100.00;94413.16;10408294;28;20025;-77
2021/05/21 00:12:06;;;;;;;3.83;2.37;;;;;;;9.77;100.00;94408.41;10406860;28;20036;-77
2021/05/21 00:17:06;;;;;;;3.13;2.80;;;;;;;9.60;100.00;94408.75;10407164;28;20385;-77
2021/05/21 00:22:07;;;;;;;3.83;2.67;;;;;;;9.63;100.00;94432.34;10407658;28;20040;-78
2021/05/21 00:27:07;;;;;;;3.93;3.03;;;;;;;9.73;100.00;94427.75;10407944;28;20357;-77
2021/05/21 00:32:08;;;;;;;3.63;3.00;;;;;;;9.50;100.00;94425.69;10406903;28;20121;-77
2021/05/21 00:37:08;;;;;;;3.40;3.10;;;;;;;9.31;100.00;94434.34;10406497;28;20493;-77
2021/05/21 00:42:08;;;;;;;3.30;3.00;;;;;;;9.16;100.00;94445.88;10423155;28;20037;-77
2021/05/21 00:47:09;;;;;;;3.70;3.10;;;;;;;9.24;100.00;94456.06;10448368;28;20029;-76
2021/05/21 00:52:10;;;;;;;3.87;3.47;;;;;;;9.04;100.00;94470.31;10447561;28;20025;-77
2021/05/21 00:57:10;;;;;;;3.75;3.35;;;;;;;9.17;100.00;94478.88;10447638;28;20051;-77
2021/05/21 01:02:10;;;;;;;5.40;4.30;;;;;;;9.27;100.00;94481.53;10447996;28;20067;-77
2021/05/21 01:07:11;;;;;;;4.53;3.70;;;;;;;9.31;100.00;94490.66;10448166;28;20063;-78
2021/05/21 01:12:11;;;;;;;4.50;3.67;;;;;;;9.30;100.00;94494.41;10446543;28;20123;-76
2021/05/21 01:17:12;;;;;;;6.22;3.90;;;;;;;9.28;100.00;94496.56;10447880;28;20036;-78
2021/05/21 01:22:14;;;;;;;4.70;4.00;;;;;;;9.02;100.00;94487.72;10446204;28;20021;-77
2021/05/21 01:27:14;;;;;;;4.20;3.80;;;;;;;9.19;100.00;94492.81;10446940;28;20470;-77
2021/05/21 01:32:15;;;;;;;4.05;3.70;;;;;;;9.22;100.00;94492.25;10447307;28;20063;-77
2021/05/21 01:37:17;;;;;;;4.72;3.60;;;;;;;9.10;100.00;94499.78;10446917;28;20472;-77
2021/05/21 01:42:18;;;;;;;3.72;3.42;;;;;;;9.09;100.00;94506.22;10429327;28;20095;-77
2021/05/21 01:47:18;;;;;;;4.20;3.80;;;;;;;8.94;100.00;94507.03;10405494;28;20024;-77
2021/05/21 01:52:18;;;;;;;4.40;4.00;;;;;;;8.89;100.00;94508.63;10405044;28;20128;-77
2021/05/21 01:57:19;;;;;;;5.63;4.47;;;;;;;8.89;100.00;94510.53;10405008;28;20064;-77
2021/05/21 02:02:19;;;;;;;4.40;3.63;;;;;;;8.92;100.00;94504.63;10405536;28;20036;-78
2021/05/21 02:07:20;;;;;;;5.20;3.77;;;;;;;8.98;100.00;94505.44;10405065;28;20636;-78
2021/05/21 02:12:21;;;;;;;4.07;3.47;;;;;;;8.81;100.00;94493.09;10405354;28;20499;-78
2021/05/21 02:17:22;;;;;;;4.45;3.72;;;;;;;8.75;100.00;94494.16;10404650;28;20061;-77
2021/05/21 02:22:23;;;;;;;3.80;3.03;;;;;;;8.75;100.00;94488.81;10404474;28;20124;-78
2021/05/21 02:27:25;;;;;;;3.53;2.72;;;;;;;8.85;100.00;94496.06;10403961;28;20077;-78
2021/05/21 02:32:25;;;;;;;3.63;2.72;;;;;;;8.75;100.00;94486.13;10404818;28;20029;-77
2021/05/21 02:37:26;;;;;;;3.17;2.88;;;;;;;8.67;100.00;94492.03;10404386;28;20060;-78
2021/05/21 02:42:27;;;;;;;4.43;2.85;;;;;;;8.92;100.00;94490.41;10421872;28;20029;-77
2021/05/21 02:47:27;;;;;;;4.00;2.97;;;;;;;8.79;100.00;94502.47;10445723;28;20025;-78
2021/05/21 02:52:28;;;;;;;4.87;3.30;;;;;;;8.82;100.00;94515.31;10444504;28;20271;-78
2021/05/21 02:57:28;;;;;;;3.80;3.25;;;;;;;8.79;100.00;94531.94;10444781;28;20043;-72
2021/05/21 03:02:28;;;;;;;3.40;2.80;;;;;;;8.81;100.00;94535.16;10450879;28;20504;-72
2021/05/21 03:07:29;;;;;;;3.83;2.80;;;;;;;8.53;100.00;94526.56;10451501;28;20263;-72
2021/05/21 03:12:29;;;;;;;3.43;2.97;;;;;;;8.53;100.00;94547.97;10451045;28;20058;-72
2021/05/21 03:17:32;;;;;;;3.33;2.80;;;;;;;8.62;100.00;94549.06;10450741;28;20875;-73
2021/05/21 03:22:33;;;;;;;5.18;3.17;;;;;;;8.69;100.00;94546.94;10450765;28;20036;-72
2021/05/21 03:27:33;;;;;;;4.22;2.58;;;;;;;8.85;100.00;94552.31;10450264;28;20083;-73
2021/05/21 03:32:34;;;;;;;5.63;3.13;;;;;;;8.68;100.00;94547.22;10449665;28;20539;-73
2021/05/21 03:37:34;;;;;;;4.10;3.05;;;;;;;8.52;100.00;94543.69;10448312;28;20055;-73
2021/05/21 03:42:35;;;;;;;5.05;3.10;;;;;;;8.31;100.00;94551.63;10446668;28;20032;-72
2021/05/21 03:47:35;;;;;;;7.22;3.95;;;;;;;8.30;100.00;94562.59;10447820;28;20031;-72
2021/05/21 03:52:36;;;;;;;6.50;4.07;;;;;;;8.28;100.00;94568.22;10447251;28;20035;-72
2021/05/21 03:57:39;;;;;;;6.93;5.37;;;;;;;8.25;100.00;94578.66;10447594;28;20017;-72
2021/05/21 04:02:40;;;;;;;6.72;4.97;;;;;;;8.31;100.00;94597.16;10447131;28;20286;-72
2021/05/21 04:07:40;;;;;;;12.10;6.25;;;;;;;8.64;100.00;94605.06;10447003;28;20499;-72
2021/05/21 04:12:41;;;;;;;10.07;5.17;;;;;;;8.87;100.00;94606.44;10446153;28;20039;-72
2021/05/21 04:17:42;;;;;;;7.65;5.40;;;;;;;8.85;100.00;94605.94;10446771;28;20021;-72
2021/05/21 04:22:42;;;;;;;7.47;5.77;;;;;;;9.01;100.00;94591.44;10446911;28;20021;-72
2021/05/21 04:27:42;;;;;;;8.03;5.10;;;;;;;9.01;100.00;94585.28;10446352;28;20291;-72
2021/05/21 04:32:43;;;;;;;8.20;5.68;;;;;;;8.88;100.00;94598.16;10425963;28;20037;-72
2021/05/21 04:37:43;;;;;;;7.67;5.87;;;;;;;8.84;100.00;94610.47;10407681;28;20021;-72
2021/05/21 04:42:44;;;;;;;6.78;5.20;;;;;;;9.10;100.00;94609.69;10404780;28;20400;-72
2021/05/21 04:47:44;;;;;;;6.82;5.03;;;;;;;9.11;100.00;94608.63;10412518;28;20047;-73
2021/05/21 04:52:45;;;;;;;7.23;5.37;;;;;;;9.14;100.00;94619.63;10404231;28;20029;-73
2021/05/21 04:57:49;;;;;;;6.57;4.93;;;;;;;9.03;100.00;94621.50;10412350;28;20292;-73
2021/05/21 05:02:50;;;;;;;6.90;5.32;;;;;;;9.22;100.00;94626.34;10415350;28;20037;-73
2021/05/21 05:07:50;;;;;;;5.65;4.47;;;;;;;9.41;100.00;94632.78;10411709;28;20099;-73
2021/05/21 05:12:52;;;;;;;5.63;4.37;;;;;;;9.55;100.00;94643.78;10404130;28;20499;-73
2021/05/21 05:17:53;;;;;;;6.10;4.85;;;;;;;9.69;100.00;94662.03;10441465;28;20094;-71
2021/05/21 05:22:55;;;;;;;4.72;4.25;;;;;;;9.73;100.00;94663.91;10443430;28;20042;-71
2021/05/21 05:27:55;;;;;;;6.55;4.63;;;;;;;9.64;100.00;94662.03;10443808;28;20400;-71
2021/05/21 05:32:56;;;;;;;5.07;4.05;;;;;;;9.60;100.00;94664.47;10445135;28;20028;-71
2021/05/21 05:37:56;;;;;;;5.82;3.97;;;;;;;9.68;100.00;94669.25;10444267;28;20029;-71
2021/05/21 05:42:57;;;;;;;4.70;3.13;;;;;;;9.87;100.00;94685.63;10445172;28;20025;-71
2021/05/21 05:47:57;;;;;;;2.83;2.55;;;;;;;9.68;100.00;94682.69;10444691;28;20087;-73
2021/05/21 05:52:57;;;;;;;2.80;2.50;;;;;;;9.80;100.00;94692.38;10444265;28;20108;-71
2021/05/21 05:57:58;;;;;;;3.65;3.03;;;;;;;9.88;100.00;94700.66;10444373;28;20099;-72
2021/05/21 06:03:12;;;;;;;2.25;2.00;;;;;;;10.20;100.00;94701.44;10438445;28;20028;-71
2021/05/21 06:08:12;;;;;;;7.28;2.40;;;;;;;10.30;100.00;94695.22;10443587;28;20028;-72
2021/05/21 06:13:13;;;;;;;5.38;2.28;;;;;;;10.62;100.00;94694.09;10417526;28;20083;-71
2021/05/21 06:18:13;;;;;;;3.17;2.22;;;;;;;10.86;100.00;94694.31;10433822;28;20409;-71
2021/05/21 06:23:14;;;;;;;4.00;2.87;;;;;;;11.04;100.00;94690.97;10416060;28;20040;-71
2021/05/21 06:28:21;;;;;;;7.45;2.72;;;;;;;11.20;100.00;94689.00;10417606;28;20101;-71
2021/05/21 06:33:22;;;;;;;4.40;2.60;;;;;;;11.49;100.00;94687.50;10414302;28;20067;-72
2021/05/21 06:38:22;;;;;;;10.80;3.00;;;;;;;11.62;100.00;94694.91;10421357;28;20465;-71
2021/05/21 06:43:23;;;;;;;25.90;3.53;;;;;;;11.75;100.00;94704.28;10453066;28;20056;-72
2021/05/21 06:48:29;;;;;;;4.15;2.00;;;;;;;11.58;100.00;94710.84;10450640;28;20021;-72
2021/05/21 06:53:30;;;;;;;6.22;2.22;;;;;;;11.74;100.00;94713.41;10450725;28;20524;-72
2021/05/21 06:58:31;;;;;;;16.55;3.33;;;;;;;11.84;100.00;94709.84;10450117;28;20025;-72
2021/05/21 07:03:31;;;;;;;9.95;3.35;;;;;;;11.85;100.00;94708.78;10452463;28;20032;-72
2021/05/21 07:08:32;;;;;;;9.00;3.20;;;;;;;11.88;100.00;94718.97;10451199;28;20511;-72
2021/05/21 07:13:32;;;;;;;12.20;3.80;;;;;;;11.87;100.00;94717.34;10451411;28;20029;-72
2021/05/21 07:18:33;;;;;;;13.13;3.00;;;;;;;12.07;100.00;94725.31;10452072;28;20040;-72
2021/05/21 07:23:33;;;;;;;5.73;3.57;;;;;;;12.08;100.00;94737.69;10450654;28;20049;-72
2021/05/21 07:28:33;;;;;;;10.57;4.87;;;;;;;11.71;100.00;94744.41;10450804;28;20031;-72
2021/05/21 07:33:36;;;;;;;4.47;3.30;;;;;;;11.05;100.00;94761.69;10449568;28;20025;-72
2021/05/21 07:38:36;;;;;;;4.00;3.55;;;;;;;10.89;100.00;94766.34;10450234;28;20040;-72
2021/05/21 07:43:38;;;;;;;4.20;2.90;;;;;;;11.91;100.00;94761.50;10450137;28;20071;-71
2021/05/21 07:48:38;;;;;;;4.50;3.15;;;;;;;15.03;100.00;94743.38;10450627;28;20271;-72
2021/05/21 07:53:38;;;;;;;4.73;2.80;;;;;;;17.48;100.00;94736.13;10448615;28;20021;-72
2021/05/21 07:58:39;;;;;;;1.70;1.48;;;;;;;19.19;100.00;94752.13;10449538;28;20808;-72
2021/05/21 08:03:39;;;;;;;2.58;1.73;;;;;;;17.09;100.00;94754.84;10450127;28;20028;-71
2021/05/21 08:08:40;;;;;;;1.70;1.60;;;;;;;16.88;100.00;94746.44;10448241;28;20024;-72
2021/05/21 08:13:40;;;;;;;2.58;2.00;;;;;;;16.12;100.00;94750.78;10407893;28;20083;-72
2021/05/21 08:18:41;;;;;;;5.77;2.63;;;;;;;15.12;100.00;94774.03;10408218;28;20025;-72
2021/05/21 08:23:41;;;;;;;5.85;4.15;;;;;;;14.35;100.00;94770.00;10406313;28;20124;-72
2021/05/21 08:28:42;;;;;;;4.17;3.30;;;;;;;13.86;100.00;94782.91;10407209;28;20045;-72
2021/05/21 08:33:43;;;;;;;5.15;3.80;;;;;;;13.39;100.00;94803.53;10407722;28;20032;-71
2021/05/21 08:38:44;;;;;;;6.70;3.90;;;;;;;12.98;100.00;94805.56;10405576;28;20021;-72
2021/05/21 08:43:48;;;;;;;6.85;3.45;;;;;;;13.08;100.00;94806.56;10406511;28;20036;-72
2021/05/21 08:48:48;;;;;;;3.72;2.88;;;;;;;12.94;100.00;94809.13;10407413;28;20036;-71
2021/05/21 08:53:49;;;;;;;7.15;3.53;;;;;;;12.30;100.00;94822.66;10406181;28;20044;-71
2021/05/21 08:58:51;;;;;;;7.25;5.47;;;;;;;12.45;100.00;94822.53;10404940;28;20044;-71
2021/05/21 09:03:59;;;;;;;6.90;5.15;;;;;;;12.43;100.00;94829.28;10406047;28;20034;-71
2021/05/21 09:08:59;;;;;;;7.60;4.82;;;;;;;12.39;100.00;94837.16;10409022;28;20103;-72
2021/05/21 09:14:05;;;;;;;5.95;3.97;;;;;;;12.46;100.00;94826.84;10437618;28;20551;-72
2021/05/21 09:19:17;;;;;;;5.10;4.20;;;;;;;12.54;100.00;94830.78;10445822;28;20036;-71
2021/05/21 09:24:21;;;;;;;4.50;4.03;;;;;;;13.42;100.00;94835.34;10446104;28;20602;-71
2021/05/21 09:29:46;;;;;;;8.57;5.10;;;;;;;14.02;100.00;94838.34;10431193;28;20026;-71
2021/05/21 09:35:00;;;;;;;4.20;3.75;;;;;;;13.81;100.00;94848.63;10404739;28;20473;-71
2021/05/21 09:40:13;;;;;;;5.55;4.35;;;;;;;13.45;100.00;94840.16;10404027;28;20033;-72
2021/05/21 09:45:33;;;;;;;9.05;5.00;;;;;;;13.18;100.00;94848.81;10403764;28;20022;-72
2021/05/21 09:50:43;;;;;;;9.02;5.75;;;;;;;13.89;100.00;94849.06;10403672;28;20060;-72
2021/05/21 09:55:49;;;;;;;11.77;5.85;;;;;;;14.14;100.00;94859.50;10403789;28;20041;-72
2021/05/21 10:01:15;;;;;;;7.22;4.18;;;;;;;14.06;100.00;94868.28;10432286;28;20067;-72
2021/05/21 10:06:17;;;;;;;12.90;5.65;;;;;;;14.13;100.00;94865.22;10438183;28;20025;-72
2021/05/21 10:11:17;;;;;;;13.43;4.82;;;;;;;14.29;100.00;94865.78;10438026;28;20411;-72
2021/05/21 10:16:19;;;;;;;8.45;5.22;;;;;;;14.48;100.00;94871.19;10450522;28;20013;-72
2021/05/21 10:21:21;;;;;;;26.45;7.57;;;;;;;15.65;100.00;94885.69;10438485;28;20110;-72
2021/05/21 10:26:33;;;;;;;5.18;3.13;;;;;;;17.83;100.00;94882.97;10446973;28;20056;-72
2021/05/21 10:31:35;;;;;;;4.60;2.83;;;;;;;19.01;96.37;94892.25;10446537;28;20075;-72
2021/05/21 10:36:35;;;;;;;6.38;3.58;;;;;;;18.62;100.00;94875.75;10450200;28;20029;-72
2021/05/21 10:41:37;;;;;;;6.10;3.50;;;;;;;18.41;96.16;94872.84;10442247;28;20025;-71
2021/05/21 10:46:42;;;;;;;5.72;3.08;;;;;;;17.07;100.00;94874.66;10437986;28;20409;-72
2021/05/21 10:51:56;;;;;;;4.40;3.55;;;;;;;16.97;100.00;94868.66;10410369;28;20028;-72
2021/05/21 10:57:22;;;;;;;6.90;4.22;;;;;;;17.98;100.00;94871.69;10410283;28;20078;-72
2021/05/21 11:02:43;;;;;;;3.97;3.20;;;;;;;17.13;100.00;94872.59;10410325;28;20041;-72
2021/05/21 11:07:45;;;;;;;4.85;3.70;;;;;;;16.13;100.00;94873.59;10407065;28;20037;-71
2021/05/21 11:12:53;;;;;;;10.25;5.18;;;;;;;15.66;100.00;94887.28;10443748;28;20043;-72
2021/05/21 11:18:09;;;;;;;6.68;4.40;;;;;;;14.50;100.00;94893.34;10417091;28;20033;-72
2021/05/21 11:23:09;;;;;;;12.43;5.55;;;;;;;14.21;100.00;94905.09;10409378;28;20029;-72
2021/05/21 11:28:13;;;;;;;4.68;4.05;;;;;;;14.35;100.00;94897.06;10408036;28;20088;-72
2021/05/21 11:33:13;;;;;;;8.43;4.53;;;;;;;14.34;100.00;94888.16;10408659;28;20041;-71
2021/05/21 11:38:22;;;;;;;6.20;3.60;;;;;;;14.53;100.00;94893.53;10409101;28;20025;-71
2021/05/21 11:43:24;;;;;;;10.10;3.40;;;;;;;15.05;100.00;94895.44;10418297;28;20030;-72
2021/05/21 11:48:36;;;;;;;4.40;3.65;;;;;;;16.19;100.00;94892.16;10406864;28;20040;-72
2021/05/21 11:53:54;;;;;;;5.22;3.33;;;;;;;16.70;100.00;94884.78;10408617;28;20095;-72
2021/05/21 11:59:08;;;;;;;4.00;3.43;;;;;;;16.82;100.00;94894.28;10443629;28;20056;-72
2021/05/21 12:04:09;;;;;;;9.02;3.58;;;;;;;16.99;100.00;94890.91;10449319;28;20060;-72
2021/05/21 12:09:11;;;;;;;3.70;3.13;;;;;;;16.39;100.00;94895.53;10448790;28;20055;-72
2021/05/21 12:14:14;;;;;;;4.72;3.08;;;;;;;16.22;100.00;94905.09;10449153;28;20533;-72
2021/05/21 12:19:15;;;;;;;7.57;3.25;;;;;;;16.13;100.00;94892.56;10446885;28;20029;-72
2021/05/21 12:24:24;;;;;;;4.70;3.20;;;;;;;16.16;100.00;94876.50;10445061;28;20523;-72
2021/05/21 12:29:27;;;;;;;5.72;4.10;;;;;;;16.69;100.00;94882.38;10407311;28;20397;-72
2021/05/21 12:34:29;;;;;;;4.78;2.70;;;;;;;16.58;100.00;94898.09;10406067;28;20502;-72
2021/05/21 12:39:30;;;;;;;3.47;2.78;;;;;;;16.48;100.00;94891.00;10405736;28;20040;-72
2021/05/21 12:44:31;;;;;;;15.20;7.68;;;;;;;16.38;100.00;94899.34;10406582;28;20033;-72
2021/05/21 12:49:36;;;;;;;7.85;3.00;;;;;;;16.73;100.00;94907.75;10406461;28;20040;-72
2021/05/21 12:54:42;;;;;;;4.70;2.92;;;;;;;16.42;100.00;94910.41;10405986;28;20083;-72
2021/05/21 12:59:49;;;;;;;11.55;3.50;;;;;;;16.92;100.00;94910.34;10406177;28;20038;-72
2021/05/21 13:05:03;;;;;;;9.15;2.85;;;;;;;17.58;99.48;94913.28;10405085;28;20033;-72
2021/05/21 13:10:07;;;;;;;5.88;3.08;;;;;;;17.80;98.83;94911.56;10412080;28;20591;-72
2021/05/21 13:15:12;;;;;;;2.60;2.40;;;;;;;17.52;98.93;94916.44;10405580;28;20116;-72
2021/05/21 13:20:17;;;;;;;3.70;2.50;;;;;;;17.45;100.00;94919.59;10416616;28;20083;-72
2021/05/21 13:25:19;;;;;;;5.00;2.70;;;;;;;17.18;95.77;94912.44;10437819;28;20575;-72
2021/05/21 13:30:21;;;;;;;3.45;2.20;;;;;;;16.93;99.00;94925.53;10445136;28;20025;-72
2021/05/21 13:35:21;;;;;;;3.47;2.25;;;;;;;16.80;90.44;94916.31;10445582;28;20033;-72
2021/05/21 13:40:22;;;;;;;5.60;2.42;;;;;;;16.54;100.00;94911.47;10430240;28;20037;-72
2021/05/21 13:45:24;;;;;;;4.93;2.20;;;;;;;16.33;100.00;94910.31;10403497;28;20140;-71
2021/05/21 13:50:26;;;;;;;2.90;2.53;;;;;;;16.13;100.00;94906.94;10404155;28;20025;-72
2021/05/21 13:55:27;;;;;;;7.65;3.45;;;;;;;16.38;100.00;94913.72;10402482;28;20068;-72
2021/05/21 14:00:27;;;;;;;5.63;2.30;;;;;;;16.51;100.00;94903.16;10403459;28;20120;-72
2021/05/21 14:05:27;;;;;;;6.37;2.37;;;;;;;16.50;100.00;94898.81;10403852;28;20037;-72
2021/05/21 14:10:28;;;;;;;12.33;3.50;;;;;;;16.36;100.00;94902.38;10419719;28;20271;-72
2021/05/21 14:15:28;;;;;;;2.80;2.50;;;;;;;16.19;100.00;94903.00;10443895;28;20032;-72
2021/05/21 14:20:29;;;;;;;5.10;2.17;;;;;;;16.45;100.00;94899.75;10441916;28;20028;-72
2021/05/21 14:25:33;;;;;;;8.30;2.90;;;;;;;16.15;100.00;94899.31;10443217;28;20291;-72
2021/05/21 14:30:34;;;;;;;5.05;2.72;;;;;;;16.28;100.00;94896.88;10443461;28;20068;-72
2021/05/21 14:35:34;;;;;;;6.20;3.15;;;;;;;16.10;100.00;94909.47;10426955;28;20033;-73
2021/05/21 14:40:35;;;;;;;7.87;3.53;;;;;;;16.02;100.00;94906.34;10433385;28;20033;-72
2021/05/21 14:45:37;;;;;;;9.85;3.10;;;;;;;15.81;100.00;94907.88;10443931;28;20267;-72
2021/05/21 14:50:41;;;;;;;7.82;3.65;;;;;;;15.60;100.00;94908.25;10442736;28;20020;-72
2021/05/21 14:55:42;;;;;;;6.60;3.60;;;;;;;15.40;100.00;94914.06;10445637;28;20025;-73
2021/05/21 15:00:43;;;;;;;10.07;5.40;;;;;;;14.84;100.00;94922.84;10450808;28;20035;-72
2021/05/21 15:05:44;;;;;;;6.53;3.97;;;;;;;14.81;100.00;94917.22;10450813;28;20025;-72
2021/05/21 15:10:50;;;;;;;7.35;3.85;;;;;;;14.84;100.00;94914.72;10449683;28;20021;-72
2021/05/21 15:16:17;;;;;;;4.15;2.90;;;;;;;14.93;100.00;94922.16;10464769;28;20528;-72
2021/05/21 15:26:33;;;;;;;3.08;2.67;;;;;;;14.75;100.00;94902.97;10450667;28;20048;-72
2021/05/21 15:31:33;;;;;;;4.00;3.42;;;;;;;14.91;100.00;94900.03;10431051;28;20054;-72
2021/05/21 15:36:33;;;;;;;3.47;2.90;;;;;;;14.94;100.00;94899.44;10409284;28;20619;-72
2021/05/21 15:41:38;;;;;;;6.95;3.40;;;;;;;15.02;100.00;94896.03;10409222;28;20288;-72
2021/05/21 15:46:41;;;;;;;6.13;3.10;;;;;;;15.02;100.00;94891.41;10408632;28;20033;-72
2021/05/21 16:01:54;;;;;;;4.45;3.50;;;;;;;15.30;100.00;94885.25;10408184;28;20029;-72
2021/05/21 16:06:54;;;;;;;5.13;3.13;;;;;;;15.27;100.00;94883.16;10406676;28;20025;-72
2021/05/21 16:11:54;;;;;;;7.40;3.30;;;;;;;15.20;100.00;94878.13;10436116;28;20051;-72
2021/05/21 16:16:55;;;;;;;8.82;3.67;;;;;;;15.17;100.00;94881.44;10448895;28;20021;-73
2021/05/21 16:21:56;;;;;;;5.80;3.15;;;;;;;15.19;100.00;94885.44;10448397;28;20082;-73
2021/05/21 16:26:56;;;;;;;7.72;2.92;;;;;;;15.18;98.91;94883.03;10448490;28;20458;-72
2021/05/21 16:31:57;;;;;;;9.40;3.20;;;;;;;15.19;99.34;94885.44;10431660;28;20025;-73
2021/05/21 16:37:01;;;;;;;10.80;3.38;;;;;;;15.18;100.00;94886.56;10447786;28;20024;-72
2021/05/21 16:42:01;;;;;;;6.30;3.38;;;;;;;15.17;100.00;94893.06;10435820;28;20040;-72
2021/05/21 16:47:02;;;;;;;4.37;2.90;;;;;;;15.14;100.00;94895.56;10447742;28;20032;-72
2021/05/21 16:52:04;;;;;;;4.83;3.30;;;;;;;15.12;100.00;94906.69;10441147;28;20553;-72
2021/05/21 16:57:04;;;;;;;6.75;3.05;;;;;;;15.15;100.00;94930.47;10416162;28;20485;-73
2021/05/21 17:02:05;;;;;;;5.22;3.05;;;;;;;15.12;100.00;94933.75;10423093;28;20026;-72
2021/05/21 17:07:11;;;;;;;7.18;2.63;;;;;;;15.12;100.00;94938.38;10433937;28;20645;-72
2021/05/21 17:12:11;;;;;;;6.25;3.05;;;;;;;15.06;100.00;94940.38;10425225;28;20408;-72
2021/05/21 17:43:40;;;;;;;10.48;3.75;;;;;;;14.28;100.00;94935.28;10446372;28;20032;-71
2021/05/21 17:48:52;;;;;;;8.65;3.13;;;;;;;13.97;100.00;94940.28;10446347;28;20021;-72
2021/05/21 18:04:52;;;;;;;4.90;3.65;;;;;;;13.49;100.00;94960.81;10442011;28;20036;-72
2021/05/21 19:17:16;;;;;;;14.15;8.68;;;;;;;12.22;100.00;95028.03;10424873;28;20110;-73
2021/05/21 19:22:17;;;;;;;13.10;7.00;;;;;;;12.02;100.00;95020.84;10410243;28;20030;-77
2021/05/21 19:27:18;;;;;;;12.80;9.02;;;;;;;12.00;100.00;95021.13;10408194;28;20428;-77
2021/05/21 19:42:55;;;;;;;14.18;6.07;;;;;;;11.73;100.00;94997.19;10449992;28;20029;-77
2021/05/21 20:14:14;;;;;;;6.00;4.10;;;;;;;11.10;100.00;95009.94;10423029;28;20037;-77
2021/05/21 20:19:16;;;;;;;7.47;4.87;;;;;;;11.14;100.00;95012.09;10407510;28;20029;-78
2021/05/21 20:24:17;;;;;;;7.93;4.38;;;;;;;10.96;100.00;95005.38;10407582;28;20526;-77
2021/05/21 20:29:35;;;;;;;5.78;3.88;;;;;;;10.94;100.00;95011.03;10407316;28;20025;-77
2021/05/21 21:00:50;;;;;;;;;;;;;;;10.63;100.00;95039.75;10432428;28;20037;-76
2021/05/21 21:21:52;;;;;;;10.10;4.32;;;;;;;10.59;100.00;95020.63;10445109;28;20040;-77
2021/05/21 21:52:53;;;;;;;5.72;4.35;;;;;;;10.05;100.00;95030.66;10404044;28;20041;-77
2021/05/21 21:58:04;;;;;;;7.38;3.40;;;;;;;9.95;100.00;95030.63;10440804;28;20032;-77
2021/05/21 22:08:34;;;;;;;8.45;3.58;;;;;;;10.02;100.00;95007.03;10444595;28;20032;-77
2021/05/21 22:19:18;;;;;;;5.55;3.72;;;;;;;10.03;100.00;94995.22;10402338;28;20041;-77
2021/05/21 22:24:22;;;;;;;6.00;3.85;;;;;;;10.02;100.00;95008.88;10406586;28;20100;-77
2021/05/21 22:29:22;;;;;;;4.47;3.60;;;;;;;10.05;100.00;95009.19;10421187;28;20039;-76
2021/05/21 22:34:23;;;;;;;6.00;4.15;;;;;;;10.04;100.00;95006.75;10401466;28;20039;-77
2021/05/21 22:39:23;;;;;;;6.73;4.07;;;;;;;10.15;100.00;94994.19;10401823;28;20026;-76
2021/05/21 22:44:25;;;;;;;4.40;3.73;;;;;;;10.08;100.00;94992.53;10427272;28;20280;-77
2021/05/21 22:49:25;;;;;;;4.75;3.42;;;;;;;10.00;100.00;94984.19;10402621;28;20021;-77
2021/05/21 22:54:26;;;;;;;6.82;3.60;;;;;;;9.87;100.00;94994.34;10401888;28;20481;-77
2021/05/21 22:59:27;;;;;;;4.85;3.67;;;;;;;9.71;100.00;94992.66;10413512;28;20033;-77
2021/05/21 23:04:27;;;;;;;5.72;3.65;;;;;;;9.65;100.00;94991.81;10402182;28;20025;-77
2021/05/21 23:09:28;;;;;;;8.37;5.00;;;;;;;9.40;100.00;94992.47;10410089;28;20021;-77
2021/05/21 23:14:28;;;;;;;5.63;4.67;;;;;;;9.29;100.00;95005.00;10442087;28;20386;-77
2021/05/21 23:19:29;;;;;;;8.95;4.45;;;;;;;9.31;100.00;95002.91;10448310;28;20063;-77
2021/05/21 23:24:29;;;;;;;5.17;4.27;;;;;;;9.28;100.00;95006.09;10429582;28;20045;-77
2021/05/21 23:29:30;;;;;;;6.07;4.30;;;;;;;9.23;100.00;95009.53;10407987;28;20276;-77
2021/05/21 23:34:31;;;;;;;5.70;4.70;;;;;;;9.26;100.00;95000.19;10410705;28;20029;-77
2021/05/21 23:39:32;;;;;;;9.32;4.70;;;;;;;9.29;100.00;95010.38;10408222;28;20030;-76
2021/05/21 23:44:32;;;;;;;13.05;4.13;;;;;;;9.12;100.00;95028.50;10407464;28;20033;-77
2021/05/21 23:49:33;;;;;;;8.00;4.63;;;;;;;8.96;100.00;95025.69;10406193;28;20030;-76
2021/05/21 23:54:33;;;;;;;5.97;4.95;;;;;;;8.93;100.00;95026.22;10406923;28;20037;-76
2021/05/21 23:59:33;;;;;;;5.53;4.40;;;;;;;8.86;100.00;95030.97;10406213;28;20029;-76
